sensor_id;sensor_type;location;lat;lon;timestamp;pressure;altitude;pressure_sealevel;temperature;humidity
31532;BME280;23787;52.180;5.288;2022-10-31T00:00:27;101900.0;;;12.4;100.0
31532;BME280;23787;52.180;5.288;2022-10-31T00:25:28;101910.0;;;12.3;100.0
31532;BME280;23787;52.180;5.288;2022-10-31T00:30:27;101910.0;;;12.5;100.0
31532;BME280;23787;52.180;5.288;2022-10-31T00:35:27;101920.0;;;12.4;100.0
31532;BME280;23787;52.180;5.288;2022-10-31T00:45:27;101910.0;;;12.3;100.0
31532;BME280;23787;52.180;5.288;2022-10-31T01:00:28;101920.0;;;12.2;100.0
31532;BME280;23787;52.180;5.288;2022-10-31T01:15:27;101930.0;;;12.1;100.0
31532;BME280;23787;52.180;5.288;2022-10-31T01:20:27;101920.0;;;12.0;100.0
31532;BME280;23787;52.180;5.288;2022-10-31T01:25:28;101910.0;;;12.1;100.0
31532;BME280;23787;52.180;5.288;2022-10-31T01:35:28;101890.0;;;12.2;100.0
31532;BME280;23787;52.180;5.288;2022-10-31T01:40:28;101880.0;;;12.0;100.0
31532;BME280;23787;52.180;5.288;2022-10-31T01:55:28;101870.0;;;11.9;100.0
31532;BME280;23787;52.180;5.288;2022-10-31T02:00:27;101880.0;;;11.8;100.0
31532;BME280;23787;52.180;5.288;2022-10-31T02:05:28;101870.0;;;11.6;100.0
31532;BME280;23787;52.180;5.288;2022-10-31T02:15:28;101870.0;;;11.5;100.0
31532;BME280;23787;52.180;5.288;2022-10-31T02:20:29;101870.0;;;11.4;100.0
31532;BME280;23787;52.180;5.288;2022-10-31T02:25:33;101870.0;;;11.2;100.0
31532;BME280;23787;52.180;5.288;2022-10-31T02:35:33;101860.0;;;11.0;100.0
31532;BME280;23787;52.180;5.288;2022-10-31T02:40:30;101870.0;;;10.9;100.0
31532;BME280;23787;52.180;5.288;2022-10-31T02:50:29;101870.0;;;10.7;100.0
31532;BME280;23787;52.180;5.288;2022-10-31T03:05:32;101870.0;;;10.4;100.0
31532;BME280;23787;52.180;5.288;2022-10-31T03:10:31;101870.0;;;10.6;100.0
31532;BME280;23787;52.180;5.288;2022-10-31T03:15:28;101870.0;;;10.5;100.0
31532;BME280;23787;52.180;5.288;2022-10-31T03:20:29;101880.0;;;10.4;100.0
31532;BME280;23787;52.180;5.288;2022-10-31T03:30:28;101880.0;;;10.2;100.0
31532;BME280;23787;52.180;5.288;2022-10-31T03:35:28;101880.0;;;10.3;100.0
31532;BME280;23787;52.180;5.288;2022-10-31T03:40:28;101880.0;;;10.2;100.0
31532;BME280;23787;52.180;5.288;2022-10-31T03:55:28;101880.0;;;10.0;100.0
31532;BME280;23787;52.180;5.288;2022-10-31T04:00:28;101890.0;;;9.9;100.0
31532;BME280;23787;52.180;5.288;2022-10-31T04:10:28;101890.0;;;10.0;100.0
31532;BME280;23787;52.180;5.288;2022-10-31T04:15:28;101890.0;;;9.9;100.0
31532;BME280;23787;52.180;5.288;2022-10-31T04:25:28;101880.0;;;9.7;100.0
31532;BME280;23787;52.180;5.288;2022-10-31T04:30:28;101880.0;;;9.6;100.0
31532;BME280;23787;52.180;5.288;2022-10-31T04:40:28;101880.0;;;9.5;100.0
31532;BME280;23787;52.180;5.288;2022-10-31T04:45:28;101890.0;;;9.6;100.0
31532;BME280;23787;52.180;5.288;2022-10-31T04:50:28;101870.0;;;9.5;100.0
31532;BME280;23787;52.180;5.288;2022-10-31T05:00:28;101880.0;;;9.4;100.0
31532;BME280;23787;52.180;5.288;2022-10-31T05:10:28;101870.0;;;9.3;100.0
31532;BME280;23787;52.180;5.288;2022-10-31T05:15:28;101880.0;;;9.2;100.0
31532;BME280;23787;52.180;5.288;2022-10-31T05:20:28;101870.0;;;9.1;100.0
31532;BME280;23787;52.180;5.288;2022-10-31T05:30:28;101860.0;;;9.0;100.0
31532;BME280;23787;52.180;5.288;2022-10-31T05:35:28;101860.0;;;9.1;100.0
31532;BME280;23787;52.180;5.288;2022-10-31T05:40:28;101850.0;;;9.0;100.0
31532;BME280;23787;52.180;5.288;2022-10-31T05:45:28;101850.0;;;8.9;100.0
31532;BME280;23787;52.180;5.288;2022-10-31T06:00:28;101850.0;;;8.8;100.0
31532;BME280;23787;52.180;5.288;2022-10-31T06:05:28;101840.0;;;8.9;100.0
31532;BME280;23787;52.180;5.288;2022-10-31T06:10:28;101850.0;;;9.0;100.0
31532;BME280;23787;52.180;5.288;2022-10-31T06:15:28;101850.0;;;9.2;100.0
31532;BME280;23787;52.180;5.288;2022-10-31T06:20:28;101850.0;;;9.1;100.0
31532;BME280;23787;52.180;5.288;2022-10-31T06:50:33;101870.0;;;9.3;100.0
31532;BME280;23787;52.180;5.288;2022-10-31T06:55:33;101880.0;;;9.4;100.0
31532;BME280;23787;52.180;5.288;2022-10-31T07:10:34;101870.0;;;9.5;100.0
31532;BME280;23787;52.180;5.288;2022-10-31T07:15:34;101860.0;;;9.6;100.0
31532;BME280;23787;52.180;5.288;2022-10-31T07:25:33;101860.0;;;9.7;100.0
31532;BME280;23787;52.180;5.288;2022-10-31T07:30:33;101870.0;;;9.8;100.0
31532;BME280;23787;52.180;5.288;2022-10-31T07:35:33;101880.0;;;9.9;100.0
31532;BME280;23787;52.180;5.288;2022-10-31T07:40:33;101880.0;;;10.0;100.0
31532;BME280;23787;52.180;5.288;2022-10-31T07:45:33;101870.0;;;10.1;100.0
31532;BME280;23787;52.180;5.288;2022-10-31T07:50:33;101880.0;;;10.2;100.0
31532;BME280;23787;52.180;5.288;2022-10-31T07:55:33;101880.0;;;10.4;100.0
31532;BME280;23787;52.180;5.288;2022-10-31T08:00:34;101890.0;;;10.6;100.0
31532;BME280;23787;52.180;5.288;2022-10-31T08:05:33;101890.0;;;10.8;100.0
31532;BME280;23787;52.180;5.288;2022-10-31T08:10:33;101900.0;;;11.1;100.0
31532;BME280;23787;52.180;5.288;2022-10-31T08:15:33;101900.0;;;11.5;100.0
31532;BME280;23787;52.180;5.288;2022-10-31T08:20:33;101900.0;;;12.1;100.0
31532;BME280;23787;52.180;5.288;2022-10-31T08:25:33;101900.0;;;13.2;100.0
31532;BME280;23787;52.180;5.288;2022-10-31T08:30:34;101890.0;;;14.3;100.0
31532;BME280;23787;52.180;5.288;2022-10-31T08:35:33;101880.0;;;15.2;100.0
31532;BME280;23787;52.180;5.288;2022-10-31T08:40:33;101880.0;;;15.4;100.0
31532;BME280;23787;52.180;5.288;2022-10-31T08:45:33;101870.0;;;14.6;100.0
31532;BME280;23787;52.180;5.288;2022-10-31T08:55:33;101870.0;;;15.8;100.0
31532;BME280;23787;52.180;5.288;2022-10-31T09:00:34;101860.0;;;15.2;100.0
31532;BME280;23787;52.180;5.288;2022-10-31T09:05:33;101840.0;;;16.3;100.0
31532;BME280;23787;52.180;5.288;2022-10-31T09:10:34;101850.0;;;17.5;100.0
31532;BME280;23787;52.180;5.288;2022-10-31T09:15:34;101840.0;;;15.5;100.0
31532;BME280;23787;52.180;5.288;2022-10-31T09:20:34;101830.0;;;16.0;100.0
31532;BME280;23787;52.180;5.288;2022-10-31T09:25:33;101820.0;;;16.5;100.0
31532;BME280;23787;52.180;5.288;2022-10-31T09:30:34;101800.0;;;17.8;100.0
31532;BME280;23787;52.180;5.288;2022-10-31T09:35:33;101800.0;;;16.5;100.0
31532;BME280;23787;52.180;5.288;2022-10-31T09:40:34;101800.0;;;17.7;100.0
31532;BME280;23787;52.180;5.288;2022-10-31T09:45:35;101800.0;;;17.1;100.0
31532;BME280;23787;52.180;5.288;2022-10-31T09:50:37;101800.0;;;17.2;100.0
31532;BME280;23787;52.180;5.288;2022-10-31T09:55:36;101800.0;;;16.9;100.0
31532;BME280;23787;52.180;5.288;2022-10-31T10:00:33;101790.0;;;16.8;100.0
31532;BME280;23787;52.180;5.288;2022-10-31T10:10:37;101780.0;;;16.4;100.0
31532;BME280;23787;52.180;5.288;2022-10-31T10:15:40;101780.0;;;16.0;100.0
31532;BME280;23787;52.180;5.288;2022-10-31T10:20:35;101770.0;;;15.7;100.0
31532;BME280;23787;52.180;5.288;2022-10-31T10:25:34;101770.0;;;16.0;100.0
31532;BME280;23787;52.180;5.288;2022-10-31T10:30:35;101770.0;;;15.8;100.0
31532;BME280;23787;52.180;5.288;2022-10-31T10:35:34;101770.0;;;16.0;100.0
31532;BME280;23787;52.180;5.288;2022-10-31T10:40:33;101760.0;;;16.5;100.0
31532;BME280;23787;52.180;5.288;2022-10-31T10:45:33;101760.0;;;16.7;100.0
31532;BME280;23787;52.180;5.288;2022-10-31T10:50:34;101750.0;;;16.5;100.0
31532;BME280;23787;52.180;5.288;2022-10-31T10:55:35;101720.0;;;16.4;100.0
31532;BME280;23787;52.180;5.288;2022-10-31T11:00:34;101700.0;;;16.1;100.0
31532;BME280;23787;52.180;5.288;2022-10-31T11:05:35;101690.0;;;16.6;100.0
31532;BME280;23787;52.180;5.288;2022-10-31T11:10:33;101680.0;;;17.0;100.0
31532;BME280;23787;52.180;5.288;2022-10-31T11:15:35;101680.0;;;17.2;100.0
31532;BME280;23787;52.180;5.288;2022-10-31T11:20:34;101650.0;;;17.4;100.0
31532;BME280;23787;52.180;5.288;2022-10-31T11:25:33;101660.0;;;17.3;100.0
31532;BME280;23787;52.180;5.288;2022-10-31T11:30:35;101660.0;;;17.4;100.0
31532;BME280;23787;52.180;5.288;2022-10-31T11:35:33;101650.0;;;17.0;100.0
31532;BME280;23787;52.180;5.288;2022-10-31T11:40:33;101640.0;;;17.2;100.0
31532;BME280;23787;52.180;5.288;2022-10-31T11:45:33;101640.0;;;17.5;100.0
31532;BME280;23787;52.180;5.288;2022-10-31T11:50:34;101630.0;;;18.0;100.0
31532;BME280;23787;52.180;5.288;2022-10-31T11:55:34;101630.0;;;17.6;100.0
31532;BME280;23787;52.180;5.288;2022-10-31T12:00:37;101600.0;;;17.7;100.0
31532;BME280;23787;52.180;5.288;2022-10-31T12:05:33;101570.0;;;17.4;100.0
31532;BME280;23787;52.180;5.288;2022-10-31T12:10:34;101570.0;;;17.6;100.0
31532;BME280;23787;52.180;5.288;2022-10-31T12:15:34;101570.0;;;17.3;100.0
31532;BME280;23787;52.180;5.288;2022-10-31T12:25:36;101560.0;;;16.9;100.0
31532;BME280;23787;52.180;5.288;2022-10-31T12:30:37;101550.0;;;17.0;100.0
31532;BME280;23787;52.180;5.288;2022-10-31T12:35:36;101540.0;;;17.1;100.0
31532;BME280;23787;52.180;5.288;2022-10-31T12:40:38;101510.0;;;17.0;100.0
31532;BME280;23787;52.180;5.288;2022-10-31T12:45:36;101520.0;;;17.9;100.0
31532;BME280;23787;52.180;5.288;2022-10-31T12:50:37;101500.0;;;17.3;100.0
31532;BME280;23787;52.180;5.288;2022-10-31T12:55:43;101490.0;;;17.0;100.0
31532;BME280;23787;52.180;5.288;2022-10-31T13:00:33;101480.0;;;17.5;100.0
31532;BME280;23787;52.180;5.288;2022-10-31T13:10:35;101460.0;;;17.4;100.0
31532;BME280;23787;52.180;5.288;2022-10-31T13:15:38;101460.0;;;17.1;100.0
31532;BME280;23787;52.180;5.288;2022-10-31T13:20:34;101440.0;;;16.8;100.0
31532;BME280;23787;52.180;5.288;2022-10-31T13:25:38;101420.0;;;17.4;100.0
31532;BME280;23787;52.180;5.288;2022-10-31T13:35:36;101400.0;;;17.2;100.0
31532;BME280;23787;52.180;5.288;2022-10-31T13:45:33;101380.0;;;17.4;100.0
31532;BME280;23787;52.180;5.288;2022-10-31T13:50:33;101380.0;;;17.6;100.0
31532;BME280;23787;52.180;5.288;2022-10-31T13:55:35;101370.0;;;17.5;100.0
31532;BME280;23787;52.180;5.288;2022-10-31T14:00:33;101370.0;;;17.1;100.0
31532;BME280;23787;52.180;5.288;2022-10-31T14:05:34;101360.0;;;16.9;100.0
31532;BME280;23787;52.180;5.288;2022-10-31T14:10:35;101340.0;;;17.1;100.0
31532;BME280;23787;52.180;5.288;2022-10-31T14:15:33;101330.0;;;17.2;100.0
31532;BME280;23787;52.180;5.288;2022-10-31T14:20:36;101330.0;;;16.9;100.0
31532;BME280;23787;52.180;5.288;2022-10-31T14:25:34;101320.0;;;16.7;100.0
31532;BME280;23787;52.180;5.288;2022-10-31T14:35:37;101300.0;;;16.8;100.0
31532;BME280;23787;52.180;5.288;2022-10-31T14:40:35;101300.0;;;16.9;100.0
31532;BME280;23787;52.180;5.288;2022-10-31T14:50:38;101280.0;;;16.6;100.0
31532;BME280;23787;52.180;5.288;2022-10-31T14:55:33;101280.0;;;16.9;100.0
31532;BME280;23787;52.180;5.288;2022-10-31T15:00:33;101270.0;;;17.0;100.0
31532;BME280;23787;52.180;5.288;2022-10-31T15:05:34;101270.0;;;16.8;100.0
31532;BME280;23787;52.180;5.288;2022-10-31T15:15:33;101250.0;;;16.5;100.0
31532;BME280;23787;52.180;5.288;2022-10-31T15:25:34;101240.0;;;16.4;100.0
31532;BME280;23787;52.180;5.288;2022-10-31T15:30:33;101230.0;;;16.5;100.0
31532;BME280;23787;52.180;5.288;2022-10-31T15:40:33;101220.0;;;16.3;100.0
31532;BME280;23787;52.180;5.288;2022-10-31T15:45:33;101210.0;;;16.1;100.0
31532;BME280;23787;52.180;5.288;2022-10-31T15:55:35;101180.0;;;16.2;100.0
31532;BME280;23787;52.180;5.288;2022-10-31T16:00:34;101170.0;;;16.1;100.0
31532;BME280;23787;52.180;5.288;2022-10-31T16:05:35;101180.0;;;16.0;100.0
31532;BME280;23787;52.180;5.288;2022-10-31T16:10:34;101170.0;;;16.2;100.0
31532;BME280;23787;52.180;5.288;2022-10-31T16:15:33;101170.0;;;16.0;100.0
31532;BME280;23787;52.180;5.288;2022-10-31T16:20:36;101160.0;;;15.9;100.0
31532;BME280;23787;52.180;5.288;2022-10-31T16:25:34;101160.0;;;16.0;100.0
31532;BME280;23787;52.180;5.288;2022-10-31T16:30:35;101160.0;;;15.8;100.0
31532;BME280;23787;52.180;5.288;2022-10-31T16:35:34;101160.0;;;15.7;100.0
31532;BME280;23787;52.180;5.288;2022-10-31T16:45:33;101140.0;;;15.5;100.0
31532;BME280;23787;52.180;5.288;2022-10-31T16:50:33;101140.0;;;15.4;100.0
31532;BME280;23787;52.180;5.288;2022-10-31T16:55:33;101130.0;;;15.3;100.0
31532;BME280;23787;52.180;5.288;2022-10-31T17:00:33;101120.0;;;15.4;100.0
31532;BME280;23787;52.180;5.288;2022-10-31T17:05:33;101120.0;;;15.3;100.0
31532;BME280;23787;52.180;5.288;2022-10-31T17:10:33;101110.0;;;15.2;100.0
31532;BME280;23787;52.180;5.288;2022-10-31T17:20:33;101110.0;;;15.3;100.0
31532;BME280;23787;52.180;5.288;2022-10-31T17:25:33;101100.0;;;15.1;100.0
31532;BME280;23787;52.180;5.288;2022-10-31T17:30:33;101080.0;;;14.9;100.0
31532;BME280;23787;52.180;5.288;2022-10-31T17:35:35;101090.0;;;14.8;100.0
31532;BME280;23787;52.180;5.288;2022-10-31T17:45:33;101080.0;;;14.7;100.0
31532;BME280;23787;52.180;5.288;2022-10-31T17:50:33;101070.0;;;14.6;100.0
31532;BME280;23787;52.180;5.288;2022-10-31T18:00:33;101040.0;;;14.5;100.0
31532;BME280;23787;52.180;5.288;2022-10-31T18:05:33;101030.0;;;14.3;100.0
31532;BME280;23787;52.180;5.288;2022-10-31T18:10:33;101020.0;;;14.4;100.0
31532;BME280;23787;52.180;5.288;2022-10-31T18:15:36;101010.0;;;14.3;100.0
31532;BME280;23787;52.180;5.288;2022-10-31T18:20:33;101010.0;;;14.4;100.0
31532;BME280;23787;52.180;5.288;2022-10-31T18:35:34;101010.0;;;14.2;100.0
31532;BME280;23787;52.180;5.288;2022-10-31T18:40:55;101000.0;;;14.2;100.0
31532;BME280;23787;52.180;5.288;2022-10-31T18:45:33;101000.0;;;14.3;100.0
31532;BME280;23787;52.180;5.288;2022-10-31T18:55:37;100990.0;;;14.2;100.0
31532;BME280;23787;52.180;5.288;2022-10-31T19:10:34;100970.0;;;14.3;100.0
31532;BME280;23787;52.180;5.288;2022-10-31T19:15:34;100970.0;;;14.4;100.0
31532;BME280;23787;52.180;5.288;2022-10-31T19:20:36;100970.0;;;14.3;100.0
31532;BME280;23787;52.180;5.288;2022-10-31T19:45:33;100920.0;;;14.4;100.0
31532;BME280;23787;52.180;5.288;2022-10-31T20:05:37;100920.0;;;14.5;100.0
31532;BME280;23787;52.180;5.288;2022-10-31T20:20:33;100890.0;;;14.6;100.0
31532;BME280;23787;52.180;5.288;2022-10-31T20:25:34;100880.0;;;14.7;100.0
31532;BME280;23787;52.180;5.288;2022-10-31T20:30:34;100870.0;;;14.6;100.0
31532;BME280;23787;52.180;5.288;2022-10-31T20:35:34;100870.0;;;14.7;100.0
31532;BME280;23787;52.180;5.288;2022-10-31T20:40:34;100870.0;;;14.6;100.0
31532;BME280;23787;52.180;5.288;2022-10-31T20:45:33;100860.0;;;14.7;100.0
31532;BME280;23787;52.180;5.288;2022-10-31T20:55:33;100840.0;;;14.8;100.0
31532;BME280;23787;52.180;5.288;2022-10-31T21:05:33;100850.0;;;14.7;100.0
31532;BME280;23787;52.180;5.288;2022-10-31T21:10:34;100830.0;;;14.8;100.0
31532;BME280;23787;52.180;5.288;2022-10-31T21:15:33;100830.0;;;15.1;100.0
31532;BME280;23787;52.180;5.288;2022-10-31T21:25:35;100820.0;;;14.9;100.0
31532;BME280;23787;52.180;5.288;2022-10-31T21:30:33;100810.0;;;14.8;100.0
31532;BME280;23787;52.180;5.288;2022-10-31T21:45:34;100780.0;;;14.7;100.0
31532;BME280;23787;52.180;5.288;2022-10-31T21:50:34;100780.0;;;14.6;100.0
31532;BME280;23787;52.180;5.288;2022-10-31T21:55:33;100780.0;;;14.7;100.0
31532;BME280;23787;52.180;5.288;2022-10-31T22:00:33;100770.0;;;14.6;100.0
31532;BME280;23787;52.180;5.288;2022-10-31T22:05:34;100760.0;;;14.7;100.0
31532;BME280;23787;52.180;5.288;2022-10-31T22:10:34;100760.0;;;14.8;100.0
31532;BME280;23787;52.180;5.288;2022-10-31T22:15:34;100760.0;;;14.9;100.0
31532;BME280;23787;52.180;5.288;2022-10-31T22:20:34;100750.0;;;14.8;100.0
31532;BME280;23787;52.180;5.288;2022-10-31T22:25:34;100750.0;;;14.9;100.0
31532;BME280;23787;52.180;5.288;2022-10-31T22:35:33;100740.0;;;15.0;100.0
31532;BME280;23787;52.180;5.288;2022-10-31T22:40:34;100730.0;;;15.1;100.0
31532;BME280;23787;52.180;5.288;2022-10-31T22:50:33;100720.0;;;15.3;100.0
31532;BME280;23787;52.180;5.288;2022-10-31T22:55:33;100700.0;;;15.4;100.0
31532;BME280;23787;52.180;5.288;2022-10-31T23:05:34;100690.0;;;15.5;100.0
31532;BME280;23787;52.180;5.288;2022-10-31T23:10:34;100700.0;;;15.4;100.0
31532;BME280;23787;52.180;5.288;2022-10-31T23:15:35;100690.0;;;15.3;100.0
31532;BME280;23787;52.180;5.288;2022-10-31T23:20:34;100680.0;;;15.2;100.0
31532;BME280;23787;52.180;5.288;2022-10-31T23:25:34;100680.0;;;15.1;100.0
31532;BME280;23787;52.180;5.288;2022-10-31T23:35:34;100660.0;;;15.0;100.0
31532;BME280;23787;52.180;5.288;2022-10-31T23:40:34;100670.0;;;14.9;100.0
31532;BME280;23787;52.180;5.288;2022-10-31T23:50:34;100670.0;;;14.5;100.0
31532;BME280;23787;52.180;5.288;2022-10-31T23:55:35;100660.0;;;14.8;100.0
